Flight Track Log - Related Links

Times and Time Zones

All times are in EDT time to prevent confusion due to time zone crossing. See the FIN666 flight status page for this flight to view local times or setup timezone preferences in your user account.

Time Position Orientation Groundspeed Altitude Reporting Facility
EDT Latitude Longitude Course Direction KTS MPH feet Rate Location/Type
Fri 08:27:00 AM 55.8358 13.1062 49° Northeast  Level Estimated
Fri 08:28:00 AM 55.9081 13.2574 50° Northeast  Level Estimated
Fri 08:29:00 AM 55.9802 13.4092 50° Northeast  Level Estimated
Fri 08:30:00 AM 56.0521 13.5615 50° Northeast  Level Estimated
Fri 08:31:00 AM 56.1269 13.7211 50° Northeast  Level Estimated
Fri 08:32:00 AM 56.2015 13.8813 50° Northeast  Level Estimated
Fri 08:33:00 AM 56.2760 14.0421 50° Northeast  Level Estimated
Fri 08:34:00 AM 56.3502 14.2035 50° Northeast  Level Estimated
Fri 08:35:00 AM 56.4241 14.3656 50° Northeast  Level Estimated
Fri 08:36:00 AM 56.4979 14.5283 51° Northeast  Level Estimated
Fri 08:37:00 AM 56.5715 14.6916 51° Northeast  Level Estimated
Fri 08:38:00 AM 56.6449 14.8556 51° Northeast  Level Estimated
Fri 08:39:00 AM 56.7180 15.0202 51° Northeast  Level Estimated
Fri 08:40:00 AM 56.7909 15.1854 51° Northeast  Level Estimated
Fri 08:41:00 AM 56.8636 15.3513 51° Northeast  Level Estimated
Fri 08:42:00 AM 56.9361 15.5178 51° Northeast  Level Estimated
Fri 08:43:00 AM 57.0083 15.6850 52° Northeast  Level Estimated
Fri 08:44:00 AM 57.0804 15.8528 52° Northeast  Level Estimated
Fri 08:45:00 AM 57.1522 16.0213 52° Northeast  Level Estimated
Fri 08:46:00 AM 57.2248 16.1929 52° Northeast  Level Estimated
Fri 08:47:00 AM 57.2972 16.3652 52° Northeast  Level Estimated
Fri 08:48:00 AM 57.3694 16.5382 52° Northeast  Level Estimated
Fri 08:49:00 AM 57.4413 16.7119 52° Northeast  Level Estimated
Fri 08:50:00 AM 57.5130 16.8862 53° Northeast  Level Estimated
Fri 08:51:00 AM 57.5844 17.0612 53° Northeast  Level Estimated
Fri 08:52:00 AM 57.6556 17.2369 53° Northeast  Level Estimated
Fri 08:53:00 AM 57.7265 17.4133 53° Northeast  Level Estimated
Fri 08:54:00 AM 57.7972 17.5905 53° Northeast  Level Estimated
Fri 08:55:00 AM 57.8677 17.7682 53° Northeast  Level Estimated
Fri 08:56:00 AM 57.9379 17.9467 53° Northeast  Level Estimated
Fri 08:57:00 AM 58.0079 18.1259 54° Northeast  Level Estimated
Fri 08:58:00 AM 58.0776 18.3058 54° Northeast  Level Estimated
Fri 08:59:00 AM 58.1470 18.4864 54° Northeast  Level Estimated
Fri 09:00:00 AM 58.2106 18.6530 54° Northeast  Level Estimated
Fri 09:01:00 AM 58.2740 18.8201 54° Northeast  Level Estimated
Fri 09:02:00 AM 58.3372 18.9879 54° Northeast  Level Estimated
Fri 09:03:00 AM 58.4001 19.1562 54° Northeast  Level Estimated
Fri 09:04:00 AM 58.4628 19.3252 55° Northeast  Level Estimated
Fri 09:05:00 AM 58.5253 19.4948 55° Northeast  Level Estimated
Fri 09:06:00 AM 58.5876 19.6649 55° Northeast  Level Estimated
Fri 09:07:00 AM 58.6496 19.8357 55° Northeast  Level Estimated
Fri 09:08:00 AM 58.7114 20.0071 55° Northeast  Level Estimated
Fri 09:09:00 AM 58.7730 20.1791 55° Northeast  Level Estimated
Fri 09:10:00 AM 58.8344 20.3517 55° Northeast  Level Estimated
Fri 09:11:00 AM 58.8955 20.5249 56° Northeast  Level Estimated
Fri 09:12:00 AM 58.9564 20.6987 56° Northeast  Level Estimated
Fri 09:13:00 AM 59.0171 20.8732 56° Northeast  Level Estimated
Fri 09:14:00 AM 59.0775 21.0482 56° Northeast  Level Estimated
Fri 09:15:00 AM 59.1377 21.2239 56° Northeast  Level Estimated
Fri 09:16:00 AM 59.1976 21.4002 56° Northeast  Level Estimated
Fri 09:17:00 AM 59.2573 21.5771 57° Northeast  Level Estimated
Fri 09:18:00 AM 59.3168 21.7546 57° Northeast  Level Estimated
Fri 09:19:00 AM 59.3760 21.9328 57° Northeast  Level Estimated
Fri 09:20:00 AM 59.4350 22.1115 57° Northeast  Level Estimated
Fri 09:21:00 AM 59.4938 22.2909 57° Northeast  Level Estimated
Fri 09:22:00 AM 59.5522 22.4709 57° Northeast  Level Estimated
Fri 09:23:00 AM 59.6105 22.6516 57° Northeast  Level Estimated
Fri 09:24:00 AM 59.6685 22.8329 58° Northeast  Level Estimated
Fri 09:25:00 AM 59.7262 23.0147 58° Northeast  Level Estimated
Fri 09:26:00 AM 59.7837 23.1973 58° Northeast  Level Estimated
Fri 09:27:00 AM 59.8410 23.3804 58° Northeast  Level Estimated
Fri 09:28:00 AM 59.8979 23.5642 58° Northeast  Level Estimated
Fri 09:29:00 AM 59.9547 23.7486 58° Northeast  Level Estimated
Fri 09:30:00 AM 60.0111 23.9337 59° Northeast  Level Estimated
Fri 09:31:00 AM 60.0673 24.1193 59° Northeast  Level Estimated
Fri 09:32:00 AM 60.1233 24.3056 59° Northeast  Level Estimated
Fri 09:33:00 AM 60.1790 24.4926 59° Northeast  Level Estimated
Fri 09:34:00 AM 60.2344 24.6801 59° Northeast  Level Estimated
Fri 09:35:00 AM 60.2896 24.8683 59° Northeast  Level Estimated
Fri 09:36:00 AM 60.3172 24.9633 60° Northeast  Level Estimated
Fri 09:37:00 AM 60.3172 24.9633 North  Level Estimated
Fri 09:38:00 AM 60.3172 24.9633 North  Level Estimated
Fri 09:39:00 AM 60.3172 24.9633 North  Level Estimated
Fri 09:40:00 AM 60.3172 24.9633 North  Level Estimated
Fri 09:41:00 AM 60.3172 24.9633 North  Level Estimated
Fri 09:42:00 AM 60.3172 24.9633 North  Level Estimated
Fri 09:43:00 AM 60.3172 24.9633 North  Level Estimated
Fri 09:44:00 AM 60.3172 24.9633 North  Level Estimated
Fri 09:45:00 AM 60.3172 24.9633 North  Level Estimated
Fri 09:46:00 AM 60.3172 24.9633 North  Level Estimated
Fri 09:47:00 AM 60.3172 24.9633 North  Level Estimated
Fri 09:48:00 AM 60.3172 24.9633 North  Level Estimated
Fri 09:49:00 AM 60.3172 24.9633 North  Level Estimated
Fri 09:50:00 AM 60.3172 24.9633 North  Level Estimated

Login

Don't have an account? Register now (free) for customized features, flight alerts, and more!